sensor_id;sensor_type;location;lat;lon;timestamp;temperature;humidity
8340;DHT22;4207;49.314;7.162;2023-03-08T00:00:35;4.50;99.90
8340;DHT22;4207;49.314;7.162;2023-03-08T00:03:03;4.50;99.90
8340;DHT22;4207;49.314;7.162;2023-03-08T00:05:34;4.50;99.90
8340;DHT22;4207;49.314;7.162;2023-03-08T00:08:04;4.50;99.90
8340;DHT22;4207;49.314;7.162;2023-03-08T00:10:32;4.40;99.90
8340;DHT22;4207;49.314;7.162;2023-03-08T00:13:00;4.40;99.90
8340;DHT22;4207;49.314;7.162;2023-03-08T00:15:30;4.40;99.90
8340;DHT22;4207;49.314;7.162;2023-03-08T00:17:58;4.40;99.90
8340;DHT22;4207;49.314;7.162;2023-03-08T00:20:26;4.40;99.90
8340;DHT22;4207;49.314;7.162;2023-03-08T00:22:55;4.40;99.90
8340;DHT22;4207;49.314;7.162;2023-03-08T00:25:23;4.40;99.90
8340;DHT22;4207;49.314;7.162;2023-03-08T00:27:51;4.40;99.90
8340;DHT22;4207;49.314;7.162;2023-03-08T00:30:20;4.40;99.90
8340;DHT22;4207;49.314;7.162;2023-03-08T00:32:48;4.40;99.90
8340;DHT22;4207;49.314;7.162;2023-03-08T00:35:16;4.30;99.90
8340;DHT22;4207;49.314;7.162;2023-03-08T00:37:45;4.30;99.90
8340;DHT22;4207;49.314;7.162;2023-03-08T00:40:17;4.30;99.90
8340;DHT22;4207;49.314;7.162;2023-03-08T00:42:45;4.30;99.90
8340;DHT22;4207;49.314;7.162;2023-03-08T00:45:13;4.20;99.90
8340;DHT22;4207;49.314;7.162;2023-03-08T00:47:42;4.20;99.90
8340;DHT22;4207;49.314;7.162;2023-03-08T00:50:10;4.20;99.90
8340;DHT22;4207;49.314;7.162;2023-03-08T00:52:38;4.20;99.90
8340;DHT22;4207;49.314;7.162;2023-03-08T00:55:07;4.20;99.90
8340;DHT22;4207;49.314;7.162;2023-03-08T00:57:37;4.20;99.90
8340;DHT22;4207;49.314;7.162;2023-03-08T01:00:06;4.20;99.90
8340;DHT22;4207;49.314;7.162;2023-03-08T01:02:38;4.20;99.90
8340;DHT22;4207;49.314;7.162;2023-03-08T01:05:08;4.10;99.90
8340;DHT22;4207;49.314;7.162;2023-03-08T01:07:36;4.10;99.90
8340;DHT22;4207;49.314;7.162;2023-03-08T01:10:08;4.10;99.90
8340;DHT22;4207;49.314;7.162;2023-03-08T01:12:38;4.10;99.90
8340;DHT22;4207;49.314;7.162;2023-03-08T01:15:08;4.10;99.90
8340;DHT22;4207;49.314;7.162;2023-03-08T01:17:36;4.10;99.90
8340;DHT22;4207;49.314;7.162;2023-03-08T01:20:05;4.10;99.90
8340;DHT22;4207;49.314;7.162;2023-03-08T01:22:34;4.10;99.90
8340;DHT22;4207;49.314;7.162;2023-03-08T01:25:02;4.10;99.90
8340;DHT22;4207;49.314;7.162;2023-03-08T01:27:30;4.10;99.90
8340;DHT22;4207;49.314;7.162;2023-03-08T01:30:06;4.00;99.90
8340;DHT22;4207;49.314;7.162;2023-03-08T01:32:34;4.00;99.90
8340;DHT22;4207;49.314;7.162;2023-03-08T01:35:02;4.00;99.90
8340;DHT22;4207;49.314;7.162;2023-03-08T01:37:31;3.90;99.90
8340;DHT22;4207;49.314;7.162;2023-03-08T01:40:00;3.90;99.90
8340;DHT22;4207;49.314;7.162;2023-03-08T01:42:28;3.80;99.90
8340;DHT22;4207;49.314;7.162;2023-03-08T01:44:58;3.70;99.90
8340;DHT22;4207;49.314;7.162;2023-03-08T01:47:31;3.70;99.90
8340;DHT22;4207;49.314;7.162;2023-03-08T01:50:18;3.70;99.90
8340;DHT22;4207;49.314;7.162;2023-03-08T01:52:49;3.70;99.90
8340;DHT22;4207;49.314;7.162;2023-03-08T01:55:20;3.60;99.90
8340;DHT22;4207;49.314;7.162;2023-03-08T01:57:52;3.70;99.90
8340;DHT22;4207;49.314;7.162;2023-03-08T02:00:23;3.70;99.90
8340;DHT22;4207;49.314;7.162;2023-03-08T02:02:58;3.70;99.90
8340;DHT22;4207;49.314;7.162;2023-03-08T02:05:28;3.70;99.90
8340;DHT22;4207;49.314;7.162;2023-03-08T02:08:04;3.70;99.90
8340;DHT22;4207;49.314;7.162;2023-03-08T02:10:36;3.80;99.90
8340;DHT22;4207;49.314;7.162;2023-03-08T02:13:05;3.80;99.90
8340;DHT22;4207;49.314;7.162;2023-03-08T02:15:37;3.80;99.90
8340;DHT22;4207;49.314;7.162;2023-03-08T02:18:07;3.80;99.90
8340;DHT22;4207;49.314;7.162;2023-03-08T02:20:37;3.90;99.90
8340;DHT22;4207;49.314;7.162;2023-03-08T02:23:09;3.90;99.90
8340;DHT22;4207;49.314;7.162;2023-03-08T02:25:40;3.80;99.90
8340;DHT22;4207;49.314;7.162;2023-03-08T02:28:09;3.90;99.90
8340;DHT22;4207;49.314;7.162;2023-03-08T02:30:37;3.90;99.90
8340;DHT22;4207;49.314;7.162;2023-03-08T02:33:05;3.90;99.90
8340;DHT22;4207;49.314;7.162;2023-03-08T02:35:34;3.90;99.90
8340;DHT22;4207;49.314;7.162;2023-03-08T02:38:04;3.90;99.90
8340;DHT22;4207;49.314;7.162;2023-03-08T02:40:33;3.90;99.90
8340;DHT22;4207;49.314;7.162;2023-03-08T02:43:04;3.90;99.90
8340;DHT22;4207;49.314;7.162;2023-03-08T02:45:32;3.90;99.90
8340;DHT22;4207;49.314;7.162;2023-03-08T02:48:01;3.90;99.90
8340;DHT22;4207;49.314;7.162;2023-03-08T02:50:29;3.80;99.90
8340;DHT22;4207;49.314;7.162;2023-03-08T02:52:58;3.80;99.90
8340;DHT22;4207;49.314;7.162;2023-03-08T02:55:26;3.70;99.90
8340;DHT22;4207;49.314;7.162;2023-03-08T02:57:56;3.60;99.90
8340;DHT22;4207;49.314;7.162;2023-03-08T03:00:24;3.50;99.90
8340;DHT22;4207;49.314;7.162;2023-03-08T03:02:52;3.40;99.90
8340;DHT22;4207;49.314;7.162;2023-03-08T03:05:20;3.40;99.90
8340;DHT22;4207;49.314;7.162;2023-03-08T03:07:48;3.30;99.90
8340;DHT22;4207;49.314;7.162;2023-03-08T03:10:19;3.20;99.90
8340;DHT22;4207;49.314;7.162;2023-03-08T03:12:47;3.20;99.90
8340;DHT22;4207;49.314;7.162;2023-03-08T03:15:19;3.20;99.90
8340;DHT22;4207;49.314;7.162;2023-03-08T03:17:51;3.20;99.90
8340;DHT22;4207;49.314;7.162;2023-03-08T03:20:20;3.30;99.90
8340;DHT22;4207;49.314;7.162;2023-03-08T03:22:48;3.30;99.90
8340;DHT22;4207;49.314;7.162;2023-03-08T03:25:18;3.40;99.90
8340;DHT22;4207;49.314;7.162;2023-03-08T03:27:47;3.40;99.90
8340;DHT22;4207;49.314;7.162;2023-03-08T03:30:18;3.40;99.90
8340;DHT22;4207;49.314;7.162;2023-03-08T03:32:46;3.40;99.90
8340;DHT22;4207;49.314;7.162;2023-03-08T03:35:19;3.50;99.90
8340;DHT22;4207;49.314;7.162;2023-03-08T03:37:47;3.50;99.90
8340;DHT22;4207;49.314;7.162;2023-03-08T03:40:15;3.50;99.90
8340;DHT22;4207;49.314;7.162;2023-03-08T03:42:47;3.50;99.90
8340;DHT22;4207;49.314;7.162;2023-03-08T03:45:16;3.50;99.90
8340;DHT22;4207;49.314;7.162;2023-03-08T03:47:46;3.50;99.90
8340;DHT22;4207;49.314;7.162;2023-03-08T03:50:15;3.50;99.90
8340;DHT22;4207;49.314;7.162;2023-03-08T03:52:52;3.50;99.90
8340;DHT22;4207;49.314;7.162;2023-03-08T03:55:20;3.50;99.90
8340;DHT22;4207;49.314;7.162;2023-03-08T03:57:48;3.50;99.90
8340;DHT22;4207;49.314;7.162;2023-03-08T04:00:18;3.50;99.90
8340;DHT22;4207;49.314;7.162;2023-03-08T04:02:59;3.50;99.90
8340;DHT22;4207;49.314;7.162;2023-03-08T04:05:28;3.50;99.90
8340;DHT22;4207;49.314;7.162;2023-03-08T04:07:56;3.50;99.90
8340;DHT22;4207;49.314;7.162;2023-03-08T04:10:28;3.50;99.90
8340;DHT22;4207;49.314;7.162;2023-03-08T04:12:58;3.50;99.90
8340;DHT22;4207;49.314;7.162;2023-03-08T04:15:26;3.50;99.90
8340;DHT22;4207;49.314;7.162;2023-03-08T04:17:57;3.40;99.90
8340;DHT22;4207;49.314;7.162;2023-03-08T04:20:29;3.40;99.90
8340;DHT22;4207;49.314;7.162;2023-03-08T04:22:58;3.50;99.90
8340;DHT22;4207;49.314;7.162;2023-03-08T04:25:39;3.40;99.90
8340;DHT22;4207;49.314;7.162;2023-03-08T04:28:09;3.40;99.90
8340;DHT22;4207;49.314;7.162;2023-03-08T04:30:38;3.40;99.90
8340;DHT22;4207;49.314;7.162;2023-03-08T04:33:06;3.40;99.90
8340;DHT22;4207;49.314;7.162;2023-03-08T04:35:44;3.40;99.90
8340;DHT22;4207;49.314;7.162;2023-03-08T04:38:14;3.40;99.90
8340;DHT22;4207;49.314;7.162;2023-03-08T04:40:48;3.40;99.90
8340;DHT22;4207;49.314;7.162;2023-03-08T04:43:53;3.40;99.90
8340;DHT22;4207;49.314;7.162;2023-03-08T04:46:30;3.30;99.90
8340;DHT22;4207;49.314;7.162;2023-03-08T04:48:59;3.40;99.90
8340;DHT22;4207;49.314;7.162;2023-03-08T04:51:34;3.40;99.90
8340;DHT22;4207;49.314;7.162;2023-03-08T04:54:04;3.40;99.90
8340;DHT22;4207;49.314;7.162;2023-03-08T04:56:35;3.40;99.90
8340;DHT22;4207;49.314;7.162;2023-03-08T04:59:03;3.40;99.90
8340;DHT22;4207;49.314;7.162;2023-03-08T05:01:31;3.40;99.90
8340;DHT22;4207;49.314;7.162;2023-03-08T05:04:01;3.40;99.90
8340;DHT22;4207;49.314;7.162;2023-03-08T05:06:36;3.40;99.90
8340;DHT22;4207;49.314;7.162;2023-03-08T05:09:04;3.50;99.90
8340;DHT22;4207;49.314;7.162;2023-03-08T05:11:34;3.50;99.90
8340;DHT22;4207;49.314;7.162;2023-03-08T05:14:03;3.50;99.90
8340;DHT22;4207;49.314;7.162;2023-03-08T05:16:31;3.50;99.90
8340;DHT22;4207;49.314;7.162;2023-03-08T05:19:01;3.50;99.90
8340;DHT22;4207;49.314;7.162;2023-03-08T05:21:36;3.50;99.90
8340;DHT22;4207;49.314;7.162;2023-03-08T05:24:05;3.60;99.90
8340;DHT22;4207;49.314;7.162;2023-03-08T05:26:35;3.50;99.90
8340;DHT22;4207;49.314;7.162;2023-03-08T05:29:03;3.50;99.90
8340;DHT22;4207;49.314;7.162;2023-03-08T05:31:34;3.50;99.90
8340;DHT22;4207;49.314;7.162;2023-03-08T05:34:05;3.50;99.90
8340;DHT22;4207;49.314;7.162;2023-03-08T05:36:37;3.60;99.90
8340;DHT22;4207;49.314;7.162;2023-03-08T05:39:06;3.60;99.90
8340;DHT22;4207;49.314;7.162;2023-03-08T05:41:41;3.60;99.90
8340;DHT22;4207;49.314;7.162;2023-03-08T05:44:10;3.60;99.90
8340;DHT22;4207;49.314;7.162;2023-03-08T05:46:39;3.60;99.90
8340;DHT22;4207;49.314;7.162;2023-03-08T05:49:10;3.60;99.90
8340;DHT22;4207;49.314;7.162;2023-03-08T05:51:39;3.60;99.90
8340;DHT22;4207;49.314;7.162;2023-03-08T05:54:08;3.70;99.90
8340;DHT22;4207;49.314;7.162;2023-03-08T05:56:38;3.60;99.90
8340;DHT22;4207;49.314;7.162;2023-03-08T05:59:18;3.60;99.90
8340;DHT22;4207;49.314;7.162;2023-03-08T06:01:47;3.70;99.90
8340;DHT22;4207;49.314;7.162;2023-03-08T06:04:23;3.70;99.90
8340;DHT22;4207;49.314;7.162;2023-03-08T06:06:52;3.70;99.90
8340;DHT22;4207;49.314;7.162;2023-03-08T06:09:24;3.70;99.90
8340;DHT22;4207;49.314;7.162;2023-03-08T06:11:52;3.70;99.90
8340;DHT22;4207;49.314;7.162;2023-03-08T06:14:23;3.60;99.90
8340;DHT22;4207;49.314;7.162;2023-03-08T06:16:52;3.60;99.90
8340;DHT22;4207;49.314;7.162;2023-03-08T06:19:23;3.60;99.90
8340;DHT22;4207;49.314;7.162;2023-03-08T06:21:55;3.50;99.90
8340;DHT22;4207;49.314;7.162;2023-03-08T06:24:25;3.50;99.90
8340;DHT22;4207;49.314;7.162;2023-03-08T06:26:54;3.50;99.90
8340;DHT22;4207;49.314;7.162;2023-03-08T06:29:22;3.50;99.90
8340;DHT22;4207;49.314;7.162;2023-03-08T06:31:51;3.40;99.90
8340;DHT22;4207;49.314;7.162;2023-03-08T06:34:21;3.40;99.90
8340;DHT22;4207;49.314;7.162;2023-03-08T06:36:51;3.40;99.90
8340;DHT22;4207;49.314;7.162;2023-03-08T06:39:24;3.40;99.90
8340;DHT22;4207;49.314;7.162;2023-03-08T06:41:52;3.40;99.90
8340;DHT22;4207;49.314;7.162;2023-03-08T06:44:21;3.40;99.90
8340;DHT22;4207;49.314;7.162;2023-03-08T06:46:49;3.40;99.90
8340;DHT22;4207;49.314;7.162;2023-03-08T06:49:17;3.30;99.90
8340;DHT22;4207;49.314;7.162;2023-03-08T06:51:45;3.30;99.90
8340;DHT22;4207;49.314;7.162;2023-03-08T06:54:13;3.30;99.90
8340;DHT22;4207;49.314;7.162;2023-03-08T06:56:46;3.20;99.90
8340;DHT22;4207;49.314;7.162;2023-03-08T06:59:14;3.20;99.90
8340;DHT22;4207;49.314;7.162;2023-03-08T07:01:42;3.20;99.90
8340;DHT22;4207;49.314;7.162;2023-03-08T07:04:10;3.10;99.90
8340;DHT22;4207;49.314;7.162;2023-03-08T07:06:38;3.10;99.90
8340;DHT22;4207;49.314;7.162;2023-03-08T07:09:06;3.20;99.90
8340;DHT22;4207;49.314;7.162;2023-03-08T07:11:34;3.20;99.90
8340;DHT22;4207;49.314;7.162;2023-03-08T07:14:05;3.20;99.90
8340;DHT22;4207;49.314;7.162;2023-03-08T07:16:33;3.20;99.90
8340;DHT22;4207;49.314;7.162;2023-03-08T07:19:02;3.20;99.90
8340;DHT22;4207;49.314;7.162;2023-03-08T07:21:30;3.20;99.90
8340;DHT22;4207;49.314;7.162;2023-03-08T07:24:01;3.20;99.90
8340;DHT22;4207;49.314;7.162;2023-03-08T07:26:29;3.20;99.90
8340;DHT22;4207;49.314;7.162;2023-03-08T07:28:57;3.20;99.90
8340;DHT22;4207;49.314;7.162;2023-03-08T07:31:26;3.20;99.90
8340;DHT22;4207;49.314;7.162;2023-03-08T07:33:58;3.20;99.90
8340;DHT22;4207;49.314;7.162;2023-03-08T07:36:26;3.20;99.90
8340;DHT22;4207;49.314;7.162;2023-03-08T07:38:54;3.10;99.90
8340;DHT22;4207;49.314;7.162;2023-03-08T07:41:22;3.10;99.90
8340;DHT22;4207;49.314;7.162;2023-03-08T07:43:50;3.10;99.90
8340;DHT22;4207;49.314;7.162;2023-03-08T07:46:20;3.10;99.90
8340;DHT22;4207;49.314;7.162;2023-03-08T07:48:51;3.20;99.90
8340;DHT22;4207;49.314;7.162;2023-03-08T07:51:21;3.20;99.90
8340;DHT22;4207;49.314;7.162;2023-03-08T07:53:51;3.20;99.90
8340;DHT22;4207;49.314;7.162;2023-03-08T07:56:19;3.20;99.90
8340;DHT22;4207;49.314;7.162;2023-03-08T07:58:47;3.20;99.90
8340;DHT22;4207;49.314;7.162;2023-03-08T08:01:15;3.20;99.90
8340;DHT22;4207;49.314;7.162;2023-03-08T08:03:43;3.20;99.90
8340;DHT22;4207;49.314;7.162;2023-03-08T08:06:13;3.20;99.90
8340;DHT22;4207;49.314;7.162;2023-03-08T08:08:41;3.20;99.90
8340;DHT22;4207;49.314;7.162;2023-03-08T08:11:10;3.20;99.90
8340;DHT22;4207;49.314;7.162;2023-03-08T08:13:39;3.20;99.90
8340;DHT22;4207;49.314;7.162;2023-03-08T08:16:07;3.30;99.90
8340;DHT22;4207;49.314;7.162;2023-03-08T08:18:36;3.30;99.90
8340;DHT22;4207;49.314;7.162;2023-03-08T08:21:05;3.40;99.90
8340;DHT22;4207;49.314;7.162;2023-03-08T08:23:35;3.40;99.90
8340;DHT22;4207;49.314;7.162;2023-03-08T08:26:05;3.40;99.90
8340;DHT22;4207;49.314;7.162;2023-03-08T08:28:33;3.40;99.90
8340;DHT22;4207;49.314;7.162;2023-03-08T08:31:04;3.40;99.90
8340;DHT22;4207;49.314;7.162;2023-03-08T08:33:32;3.50;99.90
8340;DHT22;4207;49.314;7.162;2023-03-08T08:36:02;3.50;99.90
8340;DHT22;4207;49.314;7.162;2023-03-08T08:38:31;3.50;99.90
8340;DHT22;4207;49.314;7.162;2023-03-08T08:41:01;3.50;99.90
8340;DHT22;4207;49.314;7.162;2023-03-08T08:43:30;3.50;99.90
8340;DHT22;4207;49.314;7.162;2023-03-08T08:45:58;3.60;99.90
8340;DHT22;4207;49.314;7.162;2023-03-08T08:48:27;3.60;99.90
8340;DHT22;4207;49.314;7.162;2023-03-08T08:50:57;3.60;99.90
8340;DHT22;4207;49.314;7.162;2023-03-08T08:53:25;3.60;99.90
8340;DHT22;4207;49.314;7.162;2023-03-08T08:55:53;3.60;99.90
8340;DHT22;4207;49.314;7.162;2023-03-08T08:58:23;3.60;99.90
8340;DHT22;4207;49.314;7.162;2023-03-08T09:00:51;3.60;99.90
8340;DHT22;4207;49.314;7.162;2023-03-08T09:03:19;3.60;99.90
8340;DHT22;4207;49.314;7.162;2023-03-08T09:05:47;3.60;99.90
8340;DHT22;4207;49.314;7.162;2023-03-08T09:08:15;3.60;99.90
8340;DHT22;4207;49.314;7.162;2023-03-08T09:10:43;3.70;99.90
8340;DHT22;4207;49.314;7.162;2023-03-08T09:13:11;3.70;99.90
8340;DHT22;4207;49.314;7.162;2023-03-08T09:15:41;3.70;99.90
8340;DHT22;4207;49.314;7.162;2023-03-08T09:18:09;3.70;99.90
8340;DHT22;4207;49.314;7.162;2023-03-08T09:20:37;3.70;99.90
8340;DHT22;4207;49.314;7.162;2023-03-08T09:23:05;3.70;99.90
8340;DHT22;4207;49.314;7.162;2023-03-08T09:25:34;3.70;99.90
8340;DHT22;4207;49.314;7.162;2023-03-08T09:28:02;3.70;99.90
8340;DHT22;4207;49.314;7.162;2023-03-08T09:30:31;3.70;99.90
8340;DHT22;4207;49.314;7.162;2023-03-08T09:33:01;3.70;99.90
8340;DHT22;4207;49.314;7.162;2023-03-08T09:35:29;3.80;99.90
8340;DHT22;4207;49.314;7.162;2023-03-08T09:37:57;3.80;99.90
8340;DHT22;4207;49.314;7.162;2023-03-08T09:40:28;3.80;99.90
8340;DHT22;4207;49.314;7.162;2023-03-08T09:43:03;3.70;99.90
8340;DHT22;4207;49.314;7.162;2023-03-08T09:45:31;3.90;99.90
8340;DHT22;4207;49.314;7.162;2023-03-08T09:48:07;3.90;99.90
8340;DHT22;4207;49.314;7.162;2023-03-08T09:50:41;4.00;99.90
8340;DHT22;4207;49.314;7.162;2023-03-08T09:53:17;4.00;99.90
8340;DHT22;4207;49.314;7.162;2023-03-08T09:55:47;4.10;99.90
8340;DHT22;4207;49.314;7.162;2023-03-08T09:58:35;4.20;99.90
8340;DHT22;4207;49.314;7.162;2023-03-08T10:01:16;4.30;99.90
8340;DHT22;4207;49.314;7.162;2023-03-08T10:04:16;4.40;99.90
8340;DHT22;4207;49.314;7.162;2023-03-08T10:06:53;4.50;99.90
8340;DHT22;4207;49.314;7.162;2023-03-08T10:09:28;4.60;99.90
8340;DHT22;4207;49.314;7.162;2023-03-08T10:12:06;4.70;99.90
8340;DHT22;4207;49.314;7.162;2023-03-08T10:14:42;4.70;99.90
8340;DHT22;4207;49.314;7.162;2023-03-08T10:17:14;4.70;99.90
8340;DHT22;4207;49.314;7.162;2023-03-08T10:19:52;4.80;99.90
8340;DHT22;4207;49.314;7.162;2023-03-08T10:22:25;4.90;99.90
8340;DHT22;4207;49.314;7.162;2023-03-08T10:24:57;5.00;99.90
8340;DHT22;4207;49.314;7.162;2023-03-08T10:27:30;5.00;99.90
8340;DHT22;4207;49.314;7.162;2023-03-08T10:30:12;5.10;99.90
8340;DHT22;4207;49.314;7.162;2023-03-08T10:32:42;5.10;99.90
8340;DHT22;4207;49.314;7.162;2023-03-08T10:35:11;5.20;99.90
8340;DHT22;4207;49.314;7.162;2023-03-08T10:37:40;5.30;99.90
8340;DHT22;4207;49.314;7.162;2023-03-08T10:40:16;5.30;99.90
8340;DHT22;4207;49.314;7.162;2023-03-08T10:42:51;5.30;99.90
8340;DHT22;4207;49.314;7.162;2023-03-08T10:45:20;5.40;99.90
8340;DHT22;4207;49.314;7.162;2023-03-08T10:47:55;5.40;99.90
8340;DHT22;4207;49.314;7.162;2023-03-08T10:50:26;5.50;99.90
8340;DHT22;4207;49.314;7.162;2023-03-08T10:52:55;5.50;99.90
8340;DHT22;4207;49.314;7.162;2023-03-08T10:55:25;5.60;99.90
8340;DHT22;4207;49.314;7.162;2023-03-08T10:57:57;5.70;99.90
8340;DHT22;4207;49.314;7.162;2023-03-08T11:00:33;5.80;99.90
8340;DHT22;4207;49.314;7.162;2023-03-08T11:03:13;5.80;99.90
8340;DHT22;4207;49.314;7.162;2023-03-08T11:05:52;5.90;99.90
8340;DHT22;4207;49.314;7.162;2023-03-08T11:08:23;5.90;99.90
8340;DHT22;4207;49.314;7.162;2023-03-08T11:11:15;6.00;99.90
8340;DHT22;4207;49.314;7.162;2023-03-08T11:13:44;6.00;99.90
8340;DHT22;4207;49.314;7.162;2023-03-08T11:16:43;6.00;99.90
8340;DHT22;4207;49.314;7.162;2023-03-08T11:19:25;6.10;99.90
8340;DHT22;4207;49.314;7.162;2023-03-08T11:22:03;6.20;99.90
8340;DHT22;4207;49.314;7.162;2023-03-08T11:24:51;6.30;99.90
8340;DHT22;4207;49.314;7.162;2023-03-08T11:27:29;6.40;99.90
8340;DHT22;4207;49.314;7.162;2023-03-08T11:30:10;6.40;99.90
8340;DHT22;4207;49.314;7.162;2023-03-08T11:32:48;6.50;99.90
8340;DHT22;4207;49.314;7.162;2023-03-08T11:35:28;6.50;99.90
8340;DHT22;4207;49.314;7.162;2023-03-08T11:38:06;6.60;99.90
8340;DHT22;4207;49.314;7.162;2023-03-08T11:40:48;6.80;99.90
8340;DHT22;4207;49.314;7.162;2023-03-08T11:43:41;6.90;99.90
8340;DHT22;4207;49.314;7.162;2023-03-08T11:46:18;7.00;99.90
8340;DHT22;4207;49.314;7.162;2023-03-08T11:49:15;7.10;99.90
8340;DHT22;4207;49.314;7.162;2023-03-08T11:51:51;7.10;99.90
8340;DHT22;4207;49.314;7.162;2023-03-08T11:54:37;7.10;99.90
8340;DHT22;4207;49.314;7.162;2023-03-08T11:57:08;7.20;99.90
8340;DHT22;4207;49.314;7.162;2023-03-08T11:59:43;7.20;99.90
8340;DHT22;4207;49.314;7.162;2023-03-08T12:02:16;7.20;99.90
8340;DHT22;4207;49.314;7.162;2023-03-08T12:04:54;7.20;99.90
8340;DHT22;4207;49.314;7.162;2023-03-08T12:07:27;7.30;99.90
8340;DHT22;4207;49.314;7.162;2023-03-08T12:10:02;7.30;99.90
8340;DHT22;4207;49.314;7.162;2023-03-08T12:12:34;7.40;99.90
8340;DHT22;4207;49.314;7.162;2023-03-08T12:15:13;7.50;99.90
8340;DHT22;4207;49.314;7.162;2023-03-08T12:17:47;7.60;99.90
8340;DHT22;4207;49.314;7.162;2023-03-08T12:20:17;7.60;99.90
8340;DHT22;4207;49.314;7.162;2023-03-08T12:22:53;7.60;99.90
8340;DHT22;4207;49.314;7.162;2023-03-08T12:25:27;7.60;99.90
8340;DHT22;4207;49.314;7.162;2023-03-08T12:27:59;7.60;99.90
8340;DHT22;4207;49.314;7.162;2023-03-08T12:30:41;7.60;99.90
8340;DHT22;4207;49.314;7.162;2023-03-08T12:33:13;7.70;99.90
8340;DHT22;4207;49.314;7.162;2023-03-08T12:35:50;7.70;99.90
8340;DHT22;4207;49.314;7.162;2023-03-08T12:38:31;7.80;99.90
8340;DHT22;4207;49.314;7.162;2023-03-08T12:41:01;7.80;99.90
8340;DHT22;4207;49.314;7.162;2023-03-08T12:43:31;7.80;99.90
8340;DHT22;4207;49.314;7.162;2023-03-08T12:46:03;7.80;99.90
8340;DHT22;4207;49.314;7.162;2023-03-08T12:48:32;7.80;99.90
8340;DHT22;4207;49.314;7.162;2023-03-08T12:51:07;7.80;99.90
8340;DHT22;4207;49.314;7.162;2023-03-08T12:53:45;7.80;99.90
8340;DHT22;4207;49.314;7.162;2023-03-08T12:56:23;7.80;99.90
8340;DHT22;4207;49.314;7.162;2023-03-08T12:58:56;7.70;99.90
8340;DHT22;4207;49.314;7.162;2023-03-08T13:01:35;7.70;99.90
8340;DHT22;4207;49.314;7.162;2023-03-08T13:04:22;7.70;99.90
8340;DHT22;4207;49.314;7.162;2023-03-08T13:07:19;7.70;99.90
8340;DHT22;4207;49.314;7.162;2023-03-08T13:09:54;7.70;99.90
8340;DHT22;4207;49.314;7.162;2023-03-08T13:12:31;7.70;99.90
8340;DHT22;4207;49.314;7.162;2023-03-08T13:15:17;7.70;99.90
8340;DHT22;4207;49.314;7.162;2023-03-08T13:17:57;7.80;99.90
8340;DHT22;4207;49.314;7.162;2023-03-08T13:20:33;7.80;99.90
8340;DHT22;4207;49.314;7.162;2023-03-08T13:23:20;7.90;99.90
8340;DHT22;4207;49.314;7.162;2023-03-08T13:28:43;8.00;99.90
8340;DHT22;4207;49.314;7.162;2023-03-08T13:31:16;8.00;99.90
8340;DHT22;4207;49.314;7.162;2023-03-08T13:33:46;8.00;99.90
8340;DHT22;4207;49.314;7.162;2023-03-08T13:36:18;8.00;99.90
8340;DHT22;4207;49.314;7.162;2023-03-08T13:38:56;8.00;99.90
8340;DHT22;4207;49.314;7.162;2023-03-08T13:41:32;8.00;99.90
8340;DHT22;4207;49.314;7.162;2023-03-08T13:44:03;7.90;99.90
8340;DHT22;4207;49.314;7.162;2023-03-08T13:46:35;7.90;99.90
8340;DHT22;4207;49.314;7.162;2023-03-08T13:49:08;7.80;99.90
8340;DHT22;4207;49.314;7.162;2023-03-08T13:51:37;7.90;99.90
8340;DHT22;4207;49.314;7.162;2023-03-08T13:54:13;7.90;99.90
8340;DHT22;4207;49.314;7.162;2023-03-08T13:56:42;7.90;99.90
8340;DHT22;4207;49.314;7.162;2023-03-08T13:59:18;7.90;99.90
8340;DHT22;4207;49.314;7.162;2023-03-08T14:01:47;7.90;99.90
8340;DHT22;4207;49.314;7.162;2023-03-08T14:04:19;8.00;99.90
8340;DHT22;4207;49.314;7.162;2023-03-08T14:06:49;8.00;99.90
8340;DHT22;4207;49.314;7.162;2023-03-08T14:09:17;8.00;99.90
8340;DHT22;4207;49.314;7.162;2023-03-08T14:11:54;8.00;99.90
8340;DHT22;4207;49.314;7.162;2023-03-08T14:14:28;8.10;99.90
8340;DHT22;4207;49.314;7.162;2023-03-08T14:16:57;8.10;99.90
8340;DHT22;4207;49.314;7.162;2023-03-08T14:19:26;8.10;99.90
8340;DHT22;4207;49.314;7.162;2023-03-08T14:21:59;8.10;99.90
8340;DHT22;4207;49.314;7.162;2023-03-08T14:24:30;8.20;99.90
8340;DHT22;4207;49.314;7.162;2023-03-08T14:27:03;8.20;99.90
8340;DHT22;4207;49.314;7.162;2023-03-08T14:29:33;8.30;99.90
8340;DHT22;4207;49.314;7.162;2023-03-08T14:32:26;8.30;99.90
8340;DHT22;4207;49.314;7.162;2023-03-08T14:35:04;8.40;99.90
8340;DHT22;4207;49.314;7.162;2023-03-08T14:37:34;8.40;99.90
8340;DHT22;4207;49.314;7.162;2023-03-08T14:40:19;8.40;99.90
8340;DHT22;4207;49.314;7.162;2023-03-08T14:42:53;8.50;99.90
8340;DHT22;4207;49.314;7.162;2023-03-08T14:45:28;8.50;99.90
8340;DHT22;4207;49.314;7.162;2023-03-08T14:47:58;8.50;99.90
8340;DHT22;4207;49.314;7.162;2023-03-08T14:50:30;8.50;99.90
8340;DHT22;4207;49.314;7.162;2023-03-08T14:53:00;8.50;99.90
8340;DHT22;4207;49.314;7.162;2023-03-08T14:55:30;8.50;99.90
8340;DHT22;4207;49.314;7.162;2023-03-08T14:58:01;8.40;99.90
8340;DHT22;4207;49.314;7.162;2023-03-08T15:00:31;8.40;99.90
8340;DHT22;4207;49.314;7.162;2023-03-08T15:02:59;8.40;99.90
8340;DHT22;4207;49.314;7.162;2023-03-08T15:05:28;8.40;99.90
8340;DHT22;4207;49.314;7.162;2023-03-08T15:07:57;8.40;99.90
8340;DHT22;4207;49.314;7.162;2023-03-08T15:10:28;8.40;99.90
8340;DHT22;4207;49.314;7.162;2023-03-08T15:12:56;8.40;99.90
8340;DHT22;4207;49.314;7.162;2023-03-08T15:15:25;8.30;99.90
8340;DHT22;4207;49.314;7.162;2023-03-08T15:17:55;8.30;99.90
8340;DHT22;4207;49.314;7.162;2023-03-08T15:20:23;8.30;99.90
8340;DHT22;4207;49.314;7.162;2023-03-08T15:22:53;8.40;99.90
8340;DHT22;4207;49.314;7.162;2023-03-08T15:25:24;8.40;99.90
8340;DHT22;4207;49.314;7.162;2023-03-08T15:27:52;8.40;99.90
8340;DHT22;4207;49.314;7.162;2023-03-08T15:30:22;8.40;99.90
8340;DHT22;4207;49.314;7.162;2023-03-08T15:32:51;8.40;99.90
8340;DHT22;4207;49.314;7.162;2023-03-08T15:35:21;8.30;99.90
8340;DHT22;4207;49.314;7.162;2023-03-08T15:37:50;8.30;99.90
8340;DHT22;4207;49.314;7.162;2023-03-08T15:40:19;8.30;99.90
8340;DHT22;4207;49.314;7.162;2023-03-08T15:42:47;8.30;99.90
8340;DHT22;4207;49.314;7.162;2023-03-08T15:45:18;8.30;99.90
8340;DHT22;4207;49.314;7.162;2023-03-08T15:47:55;8.30;99.90
8340;DHT22;4207;49.314;7.162;2023-03-08T15:50:25;8.30;99.90
8340;DHT22;4207;49.314;7.162;2023-03-08T15:52:56;8.30;99.90
8340;DHT22;4207;49.314;7.162;2023-03-08T15:55:26;8.30;99.90
8340;DHT22;4207;49.314;7.162;2023-03-08T15:57:55;8.30;99.90
8340;DHT22;4207;49.314;7.162;2023-03-08T16:00:24;8.40;99.90
8340;DHT22;4207;49.314;7.162;2023-03-08T16:02:54;8.40;99.90
8340;DHT22;4207;49.314;7.162;2023-03-08T16:05:23;8.40;99.90
8340;DHT22;4207;49.314;7.162;2023-03-08T16:07:53;8.40;99.90
8340;DHT22;4207;49.314;7.162;2023-03-08T16:10:21;8.40;99.90
8340;DHT22;4207;49.314;7.162;2023-03-08T16:12:49;8.40;99.90
8340;DHT22;4207;49.314;7.162;2023-03-08T16:15:17;8.40;99.90
8340;DHT22;4207;49.314;7.162;2023-03-08T16:17:45;8.40;99.90
8340;DHT22;4207;49.314;7.162;2023-03-08T16:20:14;8.40;99.90
8340;DHT22;4207;49.314;7.162;2023-03-08T16:22:45;8.40;99.90
8340;DHT22;4207;49.314;7.162;2023-03-08T16:25:13;8.40;99.90
8340;DHT22;4207;49.314;7.162;2023-03-08T16:27:41;8.40;99.90
8340;DHT22;4207;49.314;7.162;2023-03-08T16:30:11;8.40;99.90
8340;DHT22;4207;49.314;7.162;2023-03-08T16:32:40;8.40;99.90
8340;DHT22;4207;49.314;7.162;2023-03-08T16:35:08;8.40;99.90
8340;DHT22;4207;49.314;7.162;2023-03-08T16:37:36;8.40;99.90
8340;DHT22;4207;49.314;7.162;2023-03-08T16:40:07;8.40;99.90
8340;DHT22;4207;49.314;7.162;2023-03-08T16:42:35;8.40;99.90
8340;DHT22;4207;49.314;7.162;2023-03-08T16:45:04;8.40;99.90
8340;DHT22;4207;49.314;7.162;2023-03-08T16:47:32;8.50;99.90